createdAt,value
2019-01-10T00:12:15.357Z,5.37
2019-01-10T00:14:44.840Z,12.13
2019-01-10T00:17:14.376Z,12.27
2019-01-10T00:19:44.022Z,11.37
2019-01-10T00:22:13.572Z,12.30
2019-01-10T00:24:43.078Z,7.47
2019-01-10T00:27:12.517Z,17.20
2019-01-10T00:29:42.068Z,14.37
2019-01-10T00:32:11.519Z,9.20
2019-01-10T00:34:40.966Z,8.23
2019-01-10T00:37:10.384Z,10.30
2019-01-10T00:39:39.844Z,6.20
2019-01-10T00:42:09.354Z,8.60
2019-01-10T00:44:38.818Z,6.80
2019-01-10T00:47:08.300Z,9.83
2019-01-10T00:49:37.882Z,13.53
2019-01-10T00:52:07.422Z,9.37
2019-01-10T00:54:36.820Z,15.73
2019-01-10T00:57:06.442Z,7.97
2019-01-10T00:59:38.053Z,11.90
2019-01-10T01:02:07.514Z,9.07
2019-01-10T01:04:37.067Z,11.23
2019-01-10T01:07:06.648Z,10.77
2019-01-10T01:09:36.040Z,9.87
2019-01-10T01:12:05.599Z,10.13
2019-01-10T01:14:35.212Z,8.90
2019-01-10T01:17:04.785Z,7.43
2019-01-10T01:19:34.273Z,9.20
2019-01-10T01:22:03.690Z,15.37
2019-01-10T01:24:33.092Z,5.57
2019-01-10T01:27:02.547Z,9.97
2019-01-10T01:29:32.107Z,6.87
2019-01-10T01:32:01.500Z,10.37
2019-01-10T01:38:24.416Z,16.40
2019-01-10T01:40:53.917Z,6.80
2019-01-10T01:43:23.379Z,16.17
2019-01-10T01:45:52.881Z,9.17
2019-01-10T01:48:22.379Z,10.57
2019-01-10T01:50:51.869Z,8.80
2019-01-10T01:53:21.414Z,17.07
2019-01-10T01:55:51.031Z,11.27
2019-01-10T01:58:20.577Z,8.63
2019-01-10T02:00:50.035Z,15.30
2019-01-10T02:03:19.475Z,11.23
2019-01-10T02:05:49.031Z,8.37
2019-01-10T02:08:18.489Z,7.77
2019-01-10T02:10:47.999Z,11.30
2019-01-10T02:13:17.646Z,10.60
2019-01-10T02:15:47.334Z,14.60
2019-01-10T02:18:16.809Z,9.20
2019-01-10T02:20:46.283Z,11.37
2019-01-10T02:23:15.707Z,9.87
2019-01-10T02:25:45.125Z,13.20
2019-01-10T02:28:14.629Z,8.70
2019-01-10T02:30:44.210Z,13.13
2019-01-10T02:33:13.682Z,4.93
2019-01-10T02:35:43.061Z,10.53
2019-01-10T02:38:12.465Z,8.20
2019-01-10T02:40:41.953Z,14.87
2019-01-10T02:43:11.437Z,10.30
2019-01-10T02:45:40.961Z,8.87
2019-01-10T02:48:10.402Z,16.80
2019-01-10T02:50:39.852Z,8.63
2019-01-10T02:53:09.368Z,10.20
2019-01-10T02:59:11.270Z,14.90
2019-01-10T03:01:40.815Z,8.90
2019-01-10T03:04:10.186Z,8.50
2019-01-10T03:06:39.744Z,6.37
2019-01-10T03:09:14.191Z,7.53
2019-01-10T03:11:43.563Z,11.20
2019-01-10T03:14:13.024Z,10.50
2019-01-10T03:16:42.485Z,4.37
2019-01-10T03:22:53.372Z,6.30
2019-01-10T03:25:22.890Z,11.43
2019-01-10T03:27:52.319Z,10.83
2019-01-10T03:30:22.059Z,6.90
2019-01-10T03:32:51.498Z,9.03
2019-01-10T03:35:21.015Z,7.00
2019-01-10T03:37:50.533Z,9.60
2019-01-10T03:40:21.886Z,12.37
2019-01-10T03:42:51.393Z,14.90
2019-01-10T03:45:22.637Z,12.87
2019-01-10T03:47:54.084Z,11.30
2019-01-10T03:50:23.572Z,12.07
2019-01-10T03:52:53.055Z,7.13
2019-01-10T03:55:22.506Z,5.40
2019-01-10T03:57:51.963Z,7.77
2019-01-10T04:00:25.372Z,9.87
2019-01-10T04:02:54.928Z,5.03
2019-01-10T04:05:24.409Z,6.43
2019-01-10T04:07:53.964Z,17.33
2019-01-10T04:10:23.400Z,5.63
2019-01-10T04:12:52.937Z,12.83
2019-01-10T04:15:22.440Z,7.77
2019-01-10T04:17:51.907Z,12.13
2019-01-10T04:20:21.460Z,15.53
2019-01-10T04:22:50.886Z,11.20
2019-01-10T04:25:20.504Z,4.63
2019-01-10T04:27:50.374Z,4.27
2019-01-10T04:30:21.007Z,16.83
2019-01-10T04:32:50.453Z,5.97
2019-01-10T04:35:19.972Z,8.10
2019-01-10T04:37:49.520Z,7.00
2019-01-10T04:40:20.780Z,10.73
2019-01-10T04:42:50.305Z,8.37
2019-01-10T04:45:19.716Z,7.00
2019-01-10T04:47:49.168Z,5.47
2019-01-10T04:50:18.663Z,14.10
2019-01-10T04:52:48.125Z,4.93
2019-01-10T04:55:18.283Z,5.37
2019-01-10T04:57:47.818Z,12.87
2019-01-10T05:00:26.307Z,15.03
2019-01-10T05:02:55.858Z,10.80
2019-01-10T05:05:25.239Z,6.50
2019-01-10T05:07:54.777Z,4.03
2019-01-10T05:10:24.212Z,5.80
2019-01-10T05:12:53.656Z,7.37
2019-01-10T05:15:23.215Z,9.60
2019-01-10T05:17:53.043Z,6.83
2019-01-10T05:20:22.655Z,12.50
2019-01-10T05:22:52.199Z,10.93
2019-01-10T05:25:21.780Z,9.87
2019-01-10T05:27:51.563Z,7.80
2019-01-10T05:30:24.943Z,9.70
2019-01-10T05:32:57.388Z,5.53
2019-01-10T05:35:26.753Z,9.27
2019-01-10T05:37:56.599Z,16.50
2019-01-10T05:40:26.241Z,13.83
2019-01-10T05:42:56.042Z,10.37
2019-01-10T05:45:25.740Z,5.67
2019-01-10T05:47:55.447Z,8.03
2019-01-10T05:50:25.116Z,5.80
2019-01-10T05:52:54.662Z,11.07
2019-01-10T05:55:24.781Z,8.20
2019-01-10T05:57:54.261Z,9.83
2019-01-10T06:00:28.568Z,10.07
2019-01-10T06:02:59.268Z,13.87
2019-01-10T06:05:28.798Z,12.10
2019-01-10T06:07:58.601Z,7.77
2019-01-10T06:10:29.419Z,10.87
2019-01-10T06:23:36.482Z,6.80
2019-01-10T06:26:06.156Z,6.70
2019-01-10T06:28:49.017Z,9.17
2019-01-10T06:31:18.376Z,6.33
2019-01-10T06:33:47.750Z,11.53
2019-01-10T06:36:17.181Z,5.90
2019-01-10T06:38:46.587Z,6.30
2019-01-10T06:41:17.017Z,9.97
2019-01-10T06:43:46.574Z,9.13
2019-01-10T06:46:15.936Z,8.23
2019-01-10T06:48:46.587Z,11.40
2019-01-10T06:51:16.109Z,7.17
2019-01-10T06:53:45.574Z,4.70
2019-01-10T06:56:15.304Z,7.63
2019-01-10T06:58:45.204Z,7.87
2019-01-10T07:01:14.594Z,7.60
2019-01-10T07:03:43.976Z,11.30
2019-01-10T07:06:13.709Z,9.87
2019-01-10T07:08:43.156Z,10.60
2019-01-10T07:11:12.664Z,11.30
2019-01-10T07:13:42.024Z,10.07
2019-01-10T07:16:11.468Z,23.93
2019-01-10T07:18:40.902Z,5.90
2019-01-10T07:21:10.266Z,10.70
2019-01-10T07:23:46.120Z,5.87
2019-01-10T07:26:15.711Z,11.20
2019-01-10T07:28:45.149Z,8.67
2019-01-10T07:31:30.877Z,11.20
2019-01-10T07:38:09.619Z,15.60
2019-01-10T07:40:39.945Z,6.70
2019-01-10T07:43:09.372Z,15.63
2019-01-10T07:45:38.765Z,8.80
2019-01-10T07:48:09.747Z,7.20
2019-01-10T07:50:39.527Z,8.80
2019-01-10T07:53:10.261Z,12.37
2019-01-10T07:55:40.519Z,10.13
2019-01-10T07:58:10.306Z,9.87
2019-01-10T08:00:39.930Z,9.13
2019-01-10T08:03:09.472Z,9.47
2019-01-10T08:05:38.904Z,10.27
2019-01-10T08:08:09.341Z,5.93
2019-01-10T08:10:38.860Z,13.40
2019-01-10T08:13:08.357Z,12.63
2019-01-10T08:15:37.733Z,9.63
2019-01-10T08:18:07.555Z,8.33
2019-01-10T08:20:37.246Z,6.53
2019-01-10T08:23:07.066Z,8.33
2019-01-10T08:25:36.583Z,6.70
2019-01-10T08:28:05.980Z,6.70
2019-01-10T08:30:35.781Z,15.90
2019-01-10T08:33:05.570Z,9.37
2019-01-10T08:35:35.007Z,6.83
2019-01-10T08:38:04.421Z,25.30
2019-01-10T08:40:33.916Z,21.57
2019-01-10T08:43:03.841Z,8.87
2019-01-10T08:45:33.603Z,6.90
2019-01-10T08:48:03.375Z,8.97
2019-01-10T08:50:33.180Z,8.17
2019-01-10T08:53:02.946Z,8.20
2019-01-10T08:55:32.624Z,6.60
2019-01-10T08:58:02.041Z,9.83
2019-01-10T09:00:31.680Z,5.43
2019-01-10T09:03:09.529Z,12.63
2019-01-10T09:05:43.450Z,8.23
2019-01-10T09:08:13.438Z,15.03
2019-01-10T09:10:46.692Z,7.27
2019-01-10T09:13:16.476Z,6.83
2019-01-10T09:15:47.757Z,9.83
2019-01-10T09:18:22.348Z,10.93
2019-01-10T09:24:34.577Z,10.90
2019-01-10T09:27:04.770Z,12.07
2019-01-10T09:29:34.816Z,8.17
2019-01-10T09:32:04.390Z,12.20
2019-01-10T09:34:34.198Z,9.47
2019-01-10T09:37:03.973Z,10.70
2019-01-10T09:39:33.658Z,9.00
2019-01-10T09:42:03.034Z,12.23
2019-01-10T09:44:32.606Z,10.73
2019-01-10T09:47:02.029Z,12.50
2019-01-10T09:49:31.542Z,7.93
2019-01-10T09:52:01.283Z,10.67
2019-01-10T09:54:31.234Z,14.97
2019-01-10T09:57:00.689Z,10.73
2019-01-10T09:59:30.250Z,8.63
2019-01-10T10:01:59.641Z,7.80
2019-01-10T10:04:29.032Z,11.10
2019-01-10T10:06:58.886Z,5.57
2019-01-10T10:09:28.762Z,8.17
2019-01-10T10:11:58.567Z,6.00
2019-01-10T10:14:28.368Z,8.37
2019-01-10T10:16:58.231Z,10.73
2019-01-10T10:19:28.046Z,11.13
2019-01-10T10:21:57.851Z,8.87
2019-01-10T10:24:30.686Z,10.67
2019-01-10T10:27:00.473Z,12.63
2019-01-10T10:29:33.355Z,6.17
2019-01-10T10:32:05.985Z,9.80
2019-01-10T10:34:35.558Z,12.13
2019-01-10T10:37:05.200Z,14.17
2019-01-10T10:39:34.692Z,13.63
2019-01-10T10:42:04.268Z,11.40
2019-01-10T10:44:33.756Z,11.43
2019-01-10T10:47:03.409Z,11.03
2019-01-10T10:49:33.229Z,8.43
2019-01-10T10:52:02.790Z,10.77
2019-01-10T10:54:32.238Z,7.07
2019-01-10T10:57:02.101Z,10.30
2019-01-10T10:59:33.673Z,15.07
2019-01-10T11:02:04.252Z,11.60
2019-01-10T11:04:34.041Z,10.63
2019-01-10T11:07:03.505Z,15.17
2019-01-10T11:09:33.232Z,10.40
2019-01-10T11:12:02.671Z,9.20
2019-01-10T11:14:32.389Z,7.17
2019-01-10T11:17:21.757Z,16.67
2019-01-10T11:19:51.268Z,9.80
2019-01-10T11:22:20.826Z,12.10
2019-01-10T11:24:50.553Z,12.17
2019-01-10T11:27:20.214Z,13.70
2019-01-10T11:29:49.614Z,12.27
2019-01-10T11:32:19.469Z,5.77
2019-01-10T11:59:54.362Z,10.07
2019-01-10T12:02:24.068Z,8.33
2019-01-10T12:04:53.500Z,8.83
2019-01-10T12:07:22.967Z,12.83
2019-01-10T12:09:52.538Z,8.50
2019-01-10T12:12:28.120Z,8.20
2019-01-10T12:14:57.934Z,9.27
2019-01-10T12:17:27.753Z,9.67
2019-01-10T12:19:57.546Z,8.50
2019-01-10T12:22:36.492Z,11.40
2019-01-10T12:25:18.278Z,17.63
2019-01-10T12:27:50.885Z,11.10
2019-01-10T12:30:23.661Z,9.90
2019-01-10T12:32:53.477Z,4.17
2019-01-10T12:35:23.906Z,11.80
2019-01-10T12:37:53.730Z,4.17
2019-01-10T12:40:23.574Z,8.50
2019-01-10T12:42:53.147Z,7.23
2019-01-10T12:45:22.658Z,7.70
2019-01-10T12:47:52.207Z,4.70
2019-01-10T12:50:24.170Z,6.83
2019-01-10T12:52:53.528Z,12.37
2019-01-10T12:55:23.261Z,5.80
2019-01-10T12:57:52.620Z,9.93
2019-01-10T13:00:22.911Z,7.30
2019-01-10T13:02:53.334Z,5.17
2019-01-10T13:05:22.906Z,3.90
2019-01-10T13:07:52.386Z,9.93
2019-01-10T13:10:21.841Z,7.67
2019-01-10T13:12:51.640Z,8.63
2019-01-10T13:15:30.131Z,11.30
2019-01-10T13:17:59.498Z,5.23
2019-01-10T13:27:33.762Z,6.63
2019-01-10T13:30:03.885Z,8.17
2019-01-10T13:32:33.481Z,3.90
2019-01-10T13:35:02.850Z,7.00
2019-01-10T13:37:32.227Z,5.93
2019-01-10T13:40:01.977Z,7.47
2019-01-10T13:42:31.513Z,6.87
2019-01-10T13:45:00.894Z,9.57
2019-01-10T13:47:30.317Z,8.97
2019-01-10T13:49:59.729Z,12.50
2019-01-10T13:56:10.349Z,3.30
2019-01-10T13:58:39.877Z,7.93
2019-01-10T14:03:38.581Z,12.47
2019-01-10T14:06:09.222Z,9.00
2019-01-10T14:08:38.659Z,5.50
2019-01-10T14:11:08.061Z,10.83
2019-01-10T14:13:37.423Z,7.63
2019-01-10T14:16:06.966Z,8.43
2019-01-10T14:18:36.389Z,7.37
2019-01-10T14:21:05.892Z,5.60
2019-01-10T14:23:35.733Z,11.63
2019-01-10T14:26:05.335Z,6.23
2019-01-10T14:28:34.777Z,8.43
2019-01-10T14:31:05.590Z,9.33
2019-01-10T14:33:35.039Z,8.73
2019-01-10T14:36:04.920Z,9.60
2019-01-10T14:38:34.358Z,3.87
2019-01-10T14:41:03.844Z,3.63
2019-01-10T14:43:33.276Z,4.53
2019-01-10T14:46:02.758Z,7.20
2019-01-10T14:48:32.395Z,3.97
2019-01-10T14:51:01.850Z,3.07
2019-01-10T14:53:32.936Z,5.60
2019-01-10T14:56:02.863Z,3.70
2019-01-10T14:58:32.347Z,6.47
2019-01-10T15:01:01.805Z,2.03
2019-01-10T15:03:31.270Z,4.23
2019-01-10T15:06:01.155Z,2.73
2019-01-10T15:08:30.526Z,4.57
2019-01-10T15:11:00.298Z,3.97
2019-01-10T15:13:29.734Z,4.90
2019-01-10T15:15:59.270Z,2.77
2019-01-10T15:18:29.118Z,6.50
2019-01-10T15:20:58.648Z,3.80
2019-01-10T15:23:28.116Z,3.57
2019-01-10T15:25:58.015Z,4.53
2019-01-10T15:28:27.480Z,4.67
2019-01-10T15:30:57.328Z,4.97
2019-01-10T15:33:26.768Z,3.73
2019-01-10T15:35:56.257Z,4.70
2019-01-10T15:38:25.761Z,6.63
2019-01-10T15:40:55.197Z,6.37
2019-01-10T15:43:24.608Z,5.07
2019-01-10T15:45:54.225Z,3.50
2019-01-10T15:48:23.776Z,4.23
2019-01-10T15:50:53.352Z,4.40
2019-01-10T15:53:23.015Z,2.80
2019-01-10T15:55:52.621Z,5.23
2019-01-10T15:58:22.393Z,3.13
2019-01-10T16:00:51.796Z,3.63
2019-01-10T16:03:21.333Z,6.23
2019-01-10T16:05:50.939Z,7.43
2019-01-10T16:08:20.573Z,4.83
2019-01-10T16:10:50.406Z,7.63
2019-01-10T16:13:20.193Z,7.80
2019-01-10T16:15:49.748Z,6.17
2019-01-10T16:18:19.201Z,6.63
2019-01-10T16:20:49.264Z,6.80
2019-01-10T16:23:19.038Z,6.30
2019-01-10T16:25:48.881Z,5.43
2019-01-10T16:28:18.555Z,4.77
2019-01-10T16:30:48.024Z,7.60
2019-01-10T16:33:17.473Z,5.10
2019-01-10T16:35:46.989Z,5.33
2019-01-10T16:38:16.671Z,4.20
2019-01-10T16:40:46.439Z,5.90
2019-01-10T16:43:15.854Z,6.57
2019-01-10T16:45:47.106Z,4.27
2019-01-10T16:48:16.629Z,7.70
2019-01-10T16:50:47.744Z,7.57
2019-01-10T16:53:17.183Z,6.60
2019-01-10T16:55:46.618Z,5.93
2019-01-10T16:58:16.108Z,9.70
2019-01-10T17:00:45.914Z,9.73
2019-01-10T17:03:15.380Z,8.47
2019-01-10T17:05:45.117Z,7.43
2019-01-10T17:08:14.543Z,6.40
2019-01-10T17:10:44.162Z,10.57
2019-01-10T17:13:13.751Z,11.37
2019-01-10T17:15:43.278Z,7.13
2019-01-10T17:18:12.803Z,9.77
2019-01-10T17:20:42.378Z,10.93
2019-01-10T17:23:11.834Z,9.30
2019-01-10T17:25:41.290Z,10.40
2019-01-10T17:28:10.891Z,6.47
2019-01-10T17:30:40.261Z,6.37
2019-01-10T17:33:09.886Z,10.03
2019-01-10T17:35:39.560Z,10.90
2019-01-10T17:38:09.186Z,8.13
2019-01-10T17:40:38.958Z,6.03
2019-01-10T17:43:08.742Z,7.93
2019-01-10T17:45:38.939Z,8.63
2019-01-10T17:48:10.143Z,6.47
2019-01-10T17:50:40.150Z,11.13
2019-01-10T17:53:10.086Z,10.93
2019-01-10T17:55:40.100Z,7.13
2019-01-10T17:58:09.970Z,9.20
2019-01-10T18:00:39.883Z,9.60
2019-01-10T18:03:09.509Z,11.17
2019-01-10T18:05:39.959Z,12.00
2019-01-10T18:08:09.624Z,11.87
2019-01-10T18:10:39.140Z,16.17
2019-01-10T18:13:08.902Z,18.73
2019-01-10T18:15:38.581Z,11.10
2019-01-10T18:18:08.102Z,13.27
2019-01-10T18:20:41.575Z,13.33
2019-01-10T18:23:12.107Z,10.70
2019-01-10T18:25:41.816Z,8.13
2019-01-10T18:28:11.732Z,12.57
2019-01-10T18:30:43.420Z,15.50
2019-01-10T18:33:12.664Z,10.80
2019-01-10T18:35:42.142Z,10.37
2019-01-10T18:38:12.021Z,14.43
2019-01-10T18:40:41.818Z,12.07
2019-01-10T18:43:11.604Z,11.80
2019-01-10T18:45:41.348Z,17.37
2019-01-10T18:48:11.088Z,13.20
2019-01-10T18:50:40.599Z,9.83
2019-01-10T18:53:10.248Z,12.47
2019-01-10T18:55:40.073Z,14.77
2019-01-10T18:58:09.681Z,12.30
2019-01-10T19:00:39.189Z,16.37
2019-01-10T19:03:08.675Z,11.60
2019-01-10T19:05:38.151Z,14.23
2019-01-10T19:08:07.916Z,13.30
2019-01-10T19:10:37.565Z,10.73
2019-01-10T19:13:07.083Z,11.57
2019-01-10T19:15:36.645Z,9.13
2019-01-10T19:18:06.029Z,13.53
2019-01-10T19:20:35.395Z,15.67
2019-01-10T19:26:37.479Z,17.63
2019-01-10T19:29:06.944Z,13.03
2019-01-10T19:31:36.322Z,11.50
2019-01-10T19:34:06.182Z,11.70
2019-01-10T19:36:36.011Z,19.40
2019-01-10T19:39:08.409Z,11.47
2019-01-10T19:41:37.956Z,25.80
2019-01-10T19:44:07.748Z,17.77
2019-01-10T19:46:37.224Z,17.17
2019-01-10T19:49:06.739Z,15.83
2019-01-10T19:51:36.181Z,15.23
2019-01-10T19:54:05.767Z,16.53
2019-01-10T19:56:35.515Z,16.03
2019-01-10T19:59:05.262Z,16.37
2019-01-10T20:01:37.728Z,17.03
2019-01-10T20:04:05.866Z,17.77
2019-01-10T20:06:35.541Z,20.33
2019-01-10T20:09:08.441Z,20.27
2019-01-10T20:11:38.266Z,18.67
2019-01-10T20:14:07.731Z,16.83
2019-01-10T20:16:37.392Z,28.50
2019-01-10T20:19:07.042Z,14.60
2019-01-10T20:21:36.745Z,21.53
2019-01-10T20:24:25.755Z,25.67
2019-01-10T20:26:56.395Z,14.60
2019-01-10T20:29:25.990Z,20.80
2019-01-10T20:31:55.801Z,21.37
2019-01-10T20:34:25.682Z,17.73
2019-01-10T20:36:55.247Z,42.10
2019-01-10T20:39:25.004Z,20.53
2019-01-10T20:42:01.688Z,20.40
2019-01-10T20:44:26.957Z,20.50
2019-01-10T20:46:56.542Z,24.97
2019-01-10T20:49:26.283Z,24.33
2019-01-10T20:51:55.833Z,19.93
2019-01-10T20:54:25.420Z,19.43
2019-01-10T20:56:54.798Z,21.93
2019-01-10T20:59:24.342Z,26.00
2019-01-10T21:01:54.024Z,22.53
2019-01-10T21:04:23.700Z,27.00
2019-01-10T21:06:53.373Z,25.87
2019-01-10T21:09:23.058Z,26.73
2019-01-10T21:11:52.842Z,28.73
2019-01-10T21:14:22.524Z,22.53
2019-01-10T21:16:52.230Z,31.50
2019-01-10T21:19:21.886Z,31.43
2019-01-10T21:21:51.474Z,28.57
2019-01-10T21:24:21.051Z,30.30
2019-01-10T21:26:50.675Z,33.07
2019-01-10T21:29:24.517Z,30.17
2019-01-10T21:32:01.195Z,27.23
2019-01-10T21:34:33.494Z,33.37
2019-01-10T21:37:03.274Z,28.53
2019-01-10T21:39:33.023Z,26.23
2019-01-10T21:42:02.873Z,33.93
2019-01-10T21:44:32.648Z,31.47
2019-01-10T21:47:02.351Z,28.93
2019-01-10T21:49:32.049Z,29.40
2019-01-10T21:52:01.721Z,30.80
2019-01-10T21:54:33.175Z,34.13
2019-01-10T21:57:03.056Z,26.27
2019-01-10T21:59:32.997Z,38.70
2019-01-10T22:02:02.726Z,33.97
2019-01-10T22:04:32.444Z,29.87
2019-01-10T22:07:02.266Z,31.70
2019-01-10T22:09:31.808Z,32.60
2019-01-10T22:12:01.408Z,39.33
2019-01-10T22:14:33.193Z,34.63
2019-01-10T22:17:03.723Z,32.27
2019-01-10T22:19:33.401Z,28.87
2019-01-10T22:22:03.096Z,30.07
2019-01-10T22:24:32.705Z,27.43
2019-01-10T22:27:02.374Z,30.10
2019-01-10T22:29:31.842Z,25.73
2019-01-10T22:32:01.460Z,31.30
2019-01-10T22:34:30.855Z,33.20
2019-01-10T22:37:00.255Z,30.87
2019-01-10T22:39:29.732Z,31.80
2019-01-10T22:41:59.194Z,28.67
2019-01-10T22:44:28.570Z,30.27
2019-01-10T22:46:57.986Z,33.63
2019-01-10T22:49:27.517Z,30.90
2019-01-10T22:51:56.949Z,28.40
2019-01-10T22:54:26.348Z,27.47
2019-01-10T22:56:55.846Z,24.20
2019-01-10T22:59:25.423Z,37.87
2019-01-10T23:01:57.457Z,23.50
2019-01-10T23:04:32.784Z,31.57
2019-01-10T23:07:02.253Z,29.80
2019-01-10T23:09:31.629Z,28.17
2019-01-10T23:12:01.128Z,27.13
2019-01-10T23:14:30.540Z,31.10
2019-01-10T23:17:00.200Z,27.97
2019-01-10T23:19:29.620Z,31.53
2019-01-10T23:22:09.092Z,28.57
2019-01-10T23:24:38.576Z,26.30
2019-01-10T23:27:08.070Z,26.67
2019-01-10T23:29:37.535Z,25.00
2019-01-10T23:32:14.918Z,28.57
2019-01-10T23:34:56.824Z,27.30
2019-01-10T23:37:27.469Z,28.17
2019-01-10T23:39:57.547Z,20.60
2019-01-10T23:42:26.942Z,25.10
2019-01-10T23:44:56.420Z,25.30
2019-01-10T23:47:25.886Z,25.83
2019-01-10T23:49:55.326Z,25.87
2019-01-10T23:52:24.735Z,24.30
2019-01-10T23:54:54.196Z,26.03
2019-01-10T23:57:23.675Z,27.97
2019-01-10T23:59:53.140Z,26.77
